Time;durP1;ratioP1;P1;durP2;ratioP2;P2;SDS_P1;SDS_P2;PMS_P1;PMS_P2;Temp;Humidity;BMP_temperature;BMP_pressure;BME280_temperature;BME280_humidity;BME280_pressure;Samples;Min_cycle;Max_cycle;Signal;HPM_P1;HPM_P2
2023/09/26 04:30:09;;;;;;;0.00;0.00;;;18.00;85.40;;;;;;5958967;23;20023;-80
2023/09/26 04:32:35;;;;;;;0.03;0.03;;;18.00;85.40;;;;;;4867315;29;20040;-80
2023/09/26 04:35:00;;;;;;;0.05;0.05;;;18.00;85.20;;;;;;4896908;29;20056;-79
2023/09/26 04:37:26;;;;;;;0.60;0.00;;;18.00;85.20;;;;;;4885122;29;20041;-79
2023/09/26 04:39:52;;;;;;;0.00;0.00;;;18.00;85.20;;;;;;4901782;29;20033;-78
2023/09/26 04:42:17;;;;;;;0.08;0.00;;;18.00;85.30;;;;;;4884078;29;20040;-78
2023/09/26 04:44:43;;;;;;;0.00;0.00;;;18.00;85.20;;;;;;4884192;29;20041;-78
2023/09/26 04:47:09;;;;;;;0.05;0.05;;;18.00;85.30;;;;;;4883886;29;20036;-78
2023/09/26 04:49:35;;;;;;;0.00;0.00;;;17.90;85.30;;;;;;4896692;29;20045;-79
2023/09/26 04:52:03;;;;;;;0.00;0.00;;;17.90;85.50;;;;;;4885808;29;20064;-80
2023/09/26 04:54:29;;;;;;;0.00;0.00;;;17.80;85.60;;;;;;4885894;29;20036;-75
2023/09/26 04:56:54;;;;;;;0.00;0.00;;;17.90;85.50;;;;;;4895141;29;20097;-75
2023/09/26 04:59:20;;;;;;;0.00;0.00;;;17.80;85.60;;;;;;4866873;29;20158;-76
2023/09/26 05:01:46;;;;;;;0.00;0.00;;;17.80;85.60;;;;;;4887867;29;20107;-76
2023/09/26 05:04:12;;;;;;;0.05;0.05;;;17.90;85.50;;;;;;4898313;29;20033;-76
2023/09/26 05:06:37;;;;;;;0.00;0.00;;;18.00;85.40;;;;;;4896431;29;20040;-76
2023/09/26 05:09:09;;;;;;;0.10;0.10;;;17.90;85.20;;;;;;4883521;29;20025;-89
2023/09/26 05:11:35;;;;;;;0.00;0.00;;;17.90;85.40;;;;;;4882247;29;20040;-76
2023/09/26 05:14:00;;;;;;;0.00;0.00;;;17.90;85.30;;;;;;4901758;29;20100;-77
2023/09/26 05:16:26;;;;;;;0.05;0.05;;;18.00;85.10;;;;;;4900353;29;20025;-78
2023/09/26 05:18:52;;;;;;;0.00;0.00;;;17.90;85.20;;;;;;4883328;29;20033;-77
2023/09/26 05:21:18;;;;;;;0.00;0.00;;;17.90;85.20;;;;;;4891872;29;20017;-78
2023/09/26 05:23:43;;;;;;;0.00;0.00;;;17.90;85.20;;;;;;4886298;29;20044;-77
2023/09/26 05:26:11;;;;;;;0.10;0.10;;;17.90;85.30;;;;;;4899085;29;20108;-77
2023/09/26 05:28:38;;;;;;;0.00;0.00;;;17.80;85.30;;;;;;4901143;29;20037;-77
2023/09/26 05:31:04;;;;;;;0.00;0.00;;;17.80;85.40;;;;;;4895440;29;20453;-77
2023/09/26 05:33:30;;;;;;;0.00;0.00;;;17.80;85.40;;;;;;4886842;29;20029;-77
2023/09/26 05:35:56;;;;;;;0.00;0.00;;;17.80;85.50;;;;;;4882921;29;20028;-77
2023/09/26 05:38:22;;;;;;;0.00;0.00;;;17.70;85.40;;;;;;4882906;29;20400;-76
2023/09/26 05:40:49;;;;;;;0.10;0.10;;;17.70;85.60;;;;;;4883019;29;20032;-75
2023/09/26 05:43:15;;;;;;;0.00;0.00;;;17.70;85.60;;;;;;4891157;29;20036;-75
2023/09/26 05:45:41;;;;;;;0.00;0.00;;;17.70;85.70;;;;;;4884733;29;20062;-75
2023/09/26 05:48:06;;;;;;;0.00;0.00;;;17.70;85.60;;;;;;4883142;29;20037;-74
2023/09/26 05:50:32;;;;;;;0.00;0.00;;;17.60;85.60;;;;;;4901466;29;20508;-75
2023/09/26 05:53:00;;;;;;;0.00;0.00;;;17.70;85.60;;;;;;4900612;29;20070;-75
2023/09/26 05:55:26;;;;;;;0.00;0.00;;;17.70;85.50;;;;;;4901389;29;20407;-75
2023/09/26 05:57:52;;;;;;;0.00;0.00;;;17.70;85.40;;;;;;4899964;29;20107;-75
2023/09/26 06:00:18;;;;;;;0.00;0.00;;;17.70;85.30;;;;;;4900945;29;20564;-75
2023/09/26 06:02:44;;;;;;;0.00;0.00;;;17.70;85.20;;;;;;4892249;29;20067;-75
2023/09/26 06:05:11;;;;;;;0.00;0.00;;;17.70;85.10;;;;;;4900126;29;20024;-75
2023/09/26 06:07:37;;;;;;;0.00;0.00;;;17.70;85.20;;;;;;4883966;29;20037;-74
2023/09/26 06:10:03;;;;;;;0.00;0.00;;;17.70;85.20;;;;;;4901526;29;20024;-75
2023/09/26 06:12:30;;;;;;;0.00;0.00;;;17.70;85.30;;;;;;4901412;29;20427;-75
2023/09/26 06:14:56;;;;;;;0.10;0.10;;;17.60;85.30;;;;;;4883610;29;20033;-75
2023/09/26 06:17:21;;;;;;;0.05;0.05;;;17.60;85.30;;;;;;4882407;29;20036;-75
2023/09/26 06:19:47;;;;;;;0.10;0.10;;;17.70;85.40;;;;;;4882446;29;20081;-75
2023/09/26 06:22:14;;;;;;;0.00;0.00;;;17.60;85.30;;;;;;4882648;29;20029;-75
2023/09/26 06:24:39;;;;;;;0.10;0.10;;;17.70;85.30;;;;;;4898182;29;20060;-75
2023/09/26 06:27:05;;;;;;;0.00;0.00;;;17.70;85.20;;;;;;4901104;29;20032;-75
2023/09/26 06:29:31;;;;;;;0.10;0.10;;;17.70;85.10;;;;;;4871876;29;20580;-75
2023/09/26 06:31:56;;;;;;;0.00;0.00;;;17.80;85.10;;;;;;4885085;29;20076;-75
2023/09/26 06:34:22;;;;;;;0.08;0.08;;;17.80;85.00;;;;;;4898171;29;20053;-75
2023/09/26 06:36:51;;;;;;;0.00;0.00;;;17.80;84.90;;;;;;4899450;29;20160;-75
2023/09/26 06:39:17;;;;;;;0.08;0.08;;;17.80;84.80;;;;;;4883576;29;20395;-75
2023/09/26 06:41:42;;;;;;;0.00;0.00;;;17.80;84.80;;;;;;4890829;29;20036;-75
2023/09/26 06:44:09;;;;;;;0.00;0.00;;;17.80;84.60;;;;;;4901141;29;20025;-75
2023/09/26 06:46:35;;;;;;;0.00;0.00;;;17.80;84.60;;;;;;4900549;29;20084;-75
2023/09/26 06:49:03;;;;;;;0.10;0.10;;;17.80;84.70;;;;;;4885415;29;20053;-75
2023/09/26 06:51:30;;;;;;;0.00;0.00;;;17.80;84.80;;;;;;4865663;29;20065;-75
2023/09/26 06:53:56;;;;;;;0.00;0.00;;;17.80;84.80;;;;;;4881962;29;20043;-75
2023/09/26 06:56:22;;;;;;;0.05;0.05;;;17.80;84.80;;;;;;4892078;29;20036;-75
2023/09/26 06:58:49;;;;;;;0.03;0.03;;;17.70;85.00;;;;;;4899453;29;20052;-75
2023/09/26 07:01:15;;;;;;;0.00;0.00;;;17.70;85.00;;;;;;4900868;29;20484;-74
2023/09/26 07:03:41;;;;;;;0.00;0.00;;;17.70;85.00;;;;;;4883986;29;20033;-75
2023/09/26 07:06:10;;;;;;;0.00;0.00;;;17.70;84.90;;;;;;4895075;29;20637;-75
2023/09/26 07:08:36;;;;;;;0.10;0.10;;;17.70;84.80;;;;;;4900352;29;20043;-75
2023/09/26 07:11:03;;;;;;;0.10;0.10;;;17.80;84.80;;;;;;4899758;29;20064;-75
2023/09/26 07:13:29;;;;;;;0.10;0.10;;;18.00;84.20;;;;;;4898035;29;20484;-75
2023/09/26 07:15:59;;;;;;;0.10;0.10;;;18.20;83.70;;;;;;4886279;29;20040;-75
2023/09/26 07:18:25;;;;;;;0.20;0.20;;;19.10;82.10;;;;;;4881726;29;20037;-75
2023/09/26 07:20:51;;;;;;;0.30;0.30;;;21.00;78.00;;;;;;4881767;29;20064;-75
2023/09/26 07:23:17;;;;;;;0.17;0.17;;;22.70;73.30;;;;;;4894461;29;20044;-75
2023/09/26 07:25:43;;;;;;;0.20;0.20;;;23.60;69.30;;;;;;4900256;29;20021;-75
2023/09/26 07:28:08;;;;;;;0.10;0.10;;;22.80;69.50;;;;;;4899085;29;20039;-75
2023/09/26 07:30:34;;;;;;;0.15;0.15;;;22.00;71.10;;;;;;4900190;29;20056;-75
2023/09/26 07:33:00;;;;;;;0.10;0.10;;;21.30;73.00;;;;;;4899339;29;20107;-75
2023/09/26 07:35:27;;;;;;;0.20;0.20;;;20.70;74.80;;;;;;4900144;29;20036;-75
2023/09/26 07:37:54;;;;;;;0.10;0.10;;;20.30;76.00;;;;;;4879855;29;20037;-75
2023/09/26 07:40:19;;;;;;;0.00;0.00;;;20.10;76.90;;;;;;4888018;29;20075;-75
2023/09/26 07:42:45;;;;;;;0.00;0.00;;;20.00;77.80;;;;;;4900109;29;20029;-75
2023/09/26 07:45:14;;;;;;;0.00;0.00;;;19.90;78.00;;;;;;4898956;29;20075;-75
2023/09/26 07:47:39;;;;;;;0.00;0.00;;;19.80;78.50;;;;;;4895319;29;20107;-75
2023/09/26 07:50:06;;;;;;;0.00;0.00;;;19.80;79.00;;;;;;4891749;29;20074;-75
2023/09/26 07:52:31;;;;;;;0.00;0.00;;;19.60;79.40;;;;;;4885102;29;20025;-75
2023/09/26 07:54:57;;;;;;;0.00;0.00;;;19.70;79.70;;;;;;4900459;29;20111;-75
2023/09/26 07:57:23;;;;;;;0.00;0.00;;;19.60;79.80;;;;;;4903798;29;20035;-75
2023/09/26 07:59:49;;;;;;;0.00;0.00;;;19.50;80.10;;;;;;4903596;29;20035;-75
2023/09/26 08:02:15;;;;;;;0.00;0.00;;;19.50;80.30;;;;;;4897155;29;20033;-74
2023/09/26 08:04:40;;;;;;;0.00;0.00;;;19.50;80.30;;;;;;4884904;29;20040;-74
2023/09/26 08:07:06;;;;;;;0.00;0.00;;;19.50;80.70;;;;;;4878477;29;20081;-75
2023/09/26 08:09:32;;;;;;;0.00;0.00;;;19.50;80.50;;;;;;4884693;29;20492;-75
2023/09/26 08:11:58;;;;;;;0.00;0.00;;;19.60;80.50;;;;;;4885155;29;20527;-75
2023/09/26 08:14:24;;;;;;;0.00;0.00;;;19.60;80.50;;;;;;4884594;29;20172;-75
2023/09/26 08:16:49;;;;;;;0.00;0.00;;;19.70;80.40;;;;;;4898698;29;20040;-75
2023/09/26 08:19:15;;;;;;;0.10;0.10;;;19.70;80.40;;;;;;4903214;29;20160;-75
2023/09/26 08:21:41;;;;;;;0.00;0.00;;;19.80;80.60;;;;;;4886683;29;20036;-75
2023/09/26 08:24:07;;;;;;;0.00;0.00;;;19.80;80.50;;;;;;4886387;29;20025;-75
2023/09/26 08:26:32;;;;;;;0.00;0.00;;;19.90;80.60;;;;;;4902121;29;20036;-75
2023/09/26 08:28:59;;;;;;;0.00;0.00;;;19.90;80.40;;;;;;4886269;29;20084;-75
2023/09/26 08:31:25;;;;;;;0.03;0.03;;;20.00;80.30;;;;;;4893343;29;20078;-75
2023/09/26 08:33:51;;;;;;;0.00;0.00;;;20.00;80.20;;;;;;4894145;29;20021;-74
2023/09/26 08:36:19;;;;;;;0.10;0.10;;;20.20;80.30;;;;;;4884309;29;20035;-75
2023/09/26 08:38:45;;;;;;;0.00;0.00;;;20.20;80.40;;;;;;4884464;29;20556;-75
2023/09/26 08:41:11;;;;;;;0.10;0.10;;;20.30;80.40;;;;;;4884109;29;20072;-75
2023/09/26 08:43:37;;;;;;;0.05;0.05;;;20.30;79.90;;;;;;4883012;29;20029;-75
2023/09/26 08:46:05;;;;;;;0.10;0.10;;;20.40;79.60;;;;;;4885212;29;20040;-75
2023/09/26 08:48:32;;;;;;;0.10;0.10;;;20.50;79.30;;;;;;4882835;29;20037;-74
2023/09/26 08:50:57;;;;;;;0.05;0.05;;;20.70;79.20;;;;;;4895516;29;20037;-75
2023/09/26 08:53:23;;;;;;;0.03;0.03;;;20.80;79.20;;;;;;4901579;29;20388;-75
2023/09/26 08:55:49;;;;;;;0.05;0.05;;;20.80;78.60;;;;;;4902932;29;20147;-75
2023/09/26 08:58:16;;;;;;;0.00;0.00;;;20.90;78.70;;;;;;4901425;29;20115;-75
2023/09/26 09:00:43;;;;;;;0.00;0.00;;;21.00;78.60;;;;;;4900754;29;20036;-75
2023/09/26 09:03:09;;;;;;;0.00;0.00;;;21.00;78.50;;;;;;4889673;29;20147;-75
2023/09/26 09:05:34;;;;;;;0.10;0.10;;;21.20;78.40;;;;;;4882799;29;20073;-75
2023/09/26 09:08:00;;;;;;;0.00;0.00;;;21.20;77.80;;;;;;4894422;29;20029;-75
2023/09/26 09:10:26;;;;;;;0.10;0.10;;;21.30;77.60;;;;;;4883587;29;20044;-75
2023/09/26 09:13:03;;;;;;;0.10;0.10;;;21.30;77.60;;;;;;4882499;29;20057;-75
2023/09/26 09:15:29;;;;;;;0.00;0.00;;;21.30;77.90;;;;;;4883602;29;20619;-75
2023/09/26 09:17:55;;;;;;;0.00;0.00;;;21.50;77.80;;;;;;4897916;29;20040;-74
2023/09/26 09:20:33;;;;;;;0.00;0.00;;;21.60;77.40;;;;;;4889773;29;20454;-75
2023/09/26 09:23:06;;;;;;;0.00;0.00;;;21.70;77.40;;;;;;4883679;29;20035;-75
2023/09/26 09:25:37;;;;;;;0.10;0.10;;;21.80;77.00;;;;;;4883434;29;20033;-75
2023/09/26 09:28:06;;;;;;;0.00;0.00;;;21.90;77.30;;;;;;4889016;29;20033;-75
2023/09/26 09:30:42;;;;;;;0.10;0.10;;;21.90;76.80;;;;;;4902037;29;20048;-74
2023/09/26 09:33:09;;;;;;;0.10;0.10;;;22.00;77.20;;;;;;4889772;29;20036;-75
2023/09/26 09:35:36;;;;;;;0.00;0.00;;;22.00;76.90;;;;;;4883294;29;20089;-75
2023/09/26 09:38:02;;;;;;;0.00;0.00;;;22.00;76.80;;;;;;4874700;29;20033;-75
2023/09/26 09:40:28;;;;;;;0.00;0.00;;;22.10;76.20;;;;;;4890754;29;20028;-75
2023/09/26 09:42:55;;;;;;;0.10;0.10;;;22.10;76.50;;;;;;4901922;29;20024;-75
2023/09/26 09:45:21;;;;;;;0.10;0.10;;;22.20;77.10;;;;;;4901665;29;20028;-75
2023/09/26 09:47:48;;;;;;;0.10;0.10;;;22.30;75.90;;;;;;4883260;29;20044;-75
2023/09/26 09:50:15;;;;;;;0.10;0.10;;;22.30;76.00;;;;;;4884174;29;20033;-75
2023/09/26 09:52:44;;;;;;;0.10;0.10;;;22.40;75.70;;;;;;4899604;29;20036;-75
2023/09/26 09:55:20;;;;;;;0.00;0.00;;;22.40;75.00;;;;;;4901635;29;20033;-75
2023/09/26 09:57:48;;;;;;;0.10;0.10;;;22.50;74.60;;;;;;4883397;29;20373;-75
2023/09/26 10:00:15;;;;;;;0.10;0.10;;;22.50;74.50;;;;;;4882806;29;20056;-75
2023/09/26 10:02:41;;;;;;;0.00;0.00;;;22.50;74.60;;;;;;4891404;29;20032;-75
2023/09/26 10:05:12;;;;;;;0.10;0.10;;;22.40;73.50;;;;;;4901361;29;20025;-74
2023/09/26 10:07:40;;;;;;;0.00;0.00;;;22.40;73.50;;;;;;4900336;29;20033;-75
2023/09/26 10:10:09;;;;;;;0.00;0.00;;;22.50;74.60;;;;;;4901468;29;20036;-75
2023/09/26 10:12:39;;;;;;;0.00;0.00;;;22.50;74.60;;;;;;4884442;29;20092;-75
2023/09/26 10:15:13;;;;;;;0.10;0.10;;;22.40;74.70;;;;;;4900186;29;20119;-75
2023/09/26 10:17:48;;;;;;;0.00;0.00;;;22.50;74.40;;;;;;4897058;29;20033;-75
2023/09/26 10:20:15;;;;;;;0.00;0.00;;;22.50;74.50;;;;;;4866413;29;20033;-75
2023/09/26 10:22:46;;;;;;;0.10;0.10;;;22.60;74.30;;;;;;4882569;29;20049;-75
2023/09/26 10:25:19;;;;;;;0.00;0.00;;;22.70;74.10;;;;;;4867037;29;20462;-75
2023/09/26 10:27:47;;;;;;;0.00;0.00;;;22.80;73.60;;;;;;4901031;29;20092;-75
2023/09/26 10:30:18;;;;;;;0.10;0.10;;;22.90;73.60;;;;;;4900796;29;20041;-75
2023/09/26 10:32:45;;;;;;;0.00;0.00;;;22.80;73.70;;;;;;4896785;29;20044;-75
2023/09/26 10:35:13;;;;;;;0.00;0.00;;;22.90;74.40;;;;;;4884048;29;20097;-75
2023/09/26 10:37:48;;;;;;;0.00;0.00;;;22.90;73.10;;;;;;4900300;29;20408;-75
2023/09/26 10:40:15;;;;;;;0.10;0.10;;;23.00;74.30;;;;;;4894931;29;20029;-75
2023/09/26 10:42:46;;;;;;;0.00;0.00;;;23.10;73.10;;;;;;4883373;29;20169;-75
2023/09/26 10:45:12;;;;;;;0.10;0.10;;;23.10;73.00;;;;;;4882051;29;20036;-75
2023/09/26 10:47:40;;;;;;;0.00;0.00;;;23.10;72.60;;;;;;4882345;29;20037;-75
2023/09/26 10:50:09;;;;;;;0.10;0.10;;;23.20;71.90;;;;;;4882007;29;20025;-75
2023/09/26 10:52:35;;;;;;;0.10;0.10;;;23.30;71.50;;;;;;4881735;29;20028;-75
2023/09/26 10:55:05;;;;;;;0.03;0.03;;;23.20;70.90;;;;;;4884318;29;20563;-75
2023/09/26 10:57:31;;;;;;;0.00;0.00;;;23.20;71.30;;;;;;4881986;29;20116;-75
2023/09/26 10:59:56;;;;;;;0.05;0.05;;;23.20;71.60;;;;;;4882008;29;20056;-75
2023/09/26 11:02:22;;;;;;;0.00;0.00;;;23.30;71.10;;;;;;4887852;29;20068;-75
2023/09/26 11:04:48;;;;;;;0.00;0.00;;;23.30;71.40;;;;;;4883204;29;20040;-75
2023/09/26 11:07:15;;;;;;;0.00;0.00;;;23.30;70.40;;;;;;4899443;29;20447;-75
2023/09/26 11:09:44;;;;;;;0.00;0.00;;;23.30;70.60;;;;;;4900576;29;20403;-75
2023/09/26 11:12:12;;;;;;;0.00;0.00;;;23.30;70.60;;;;;;4900275;29;20111;-75
2023/09/26 11:14:38;;;;;;;0.00;0.00;;;23.20;70.40;;;;;;4899697;29;20047;-75
2023/09/26 11:17:07;;;;;;;0.00;0.00;;;23.20;70.60;;;;;;4899600;29;20059;-75
2023/09/26 11:19:34;;;;;;;0.00;0.00;;;23.30;70.60;;;;;;4865258;29;20021;-75
2023/09/26 11:22:00;;;;;;;0.10;0.10;;;23.50;70.30;;;;;;4867940;29;20039;-75
2023/09/26 11:24:32;;;;;;;0.00;0.00;;;23.50;70.40;;;;;;4881742;29;20539;-75
2023/09/26 11:27:01;;;;;;;0.00;0.00;;;23.60;70.40;;;;;;4868871;29;20041;-75
2023/09/26 11:29:27;;;;;;;0.00;0.00;;;23.60;70.60;;;;;;4885422;29;20021;-75
2023/09/26 11:31:55;;;;;;;0.10;0.10;;;23.80;69.30;;;;;;4887564;29;20083;-75
2023/09/26 11:34:21;;;;;;;0.10;0.10;;;23.80;69.60;;;;;;4903157;29;20075;-75
2023/09/26 11:36:51;;;;;;;0.10;0.10;;;24.00;69.40;;;;;;4904015;29;20040;-75
2023/09/26 11:39:21;;;;;;;0.00;0.00;;;24.20;68.80;;;;;;4903455;29;20028;-75
2023/09/26 11:41:47;;;;;;;0.00;0.00;;;24.00;68.90;;;;;;4885956;29;20045;-75
2023/09/26 11:44:17;;;;;;;0.00;0.00;;;23.80;68.80;;;;;;4868832;29;20145;-75
2023/09/26 11:46:49;;;;;;;0.00;0.00;;;23.70;68.50;;;;;;4885089;29;20040;-75
2023/09/26 11:49:17;;;;;;;0.00;0.00;;;23.60;69.10;;;;;;4885280;29;20032;-75
2023/09/26 11:51:43;;;;;;;0.00;0.00;;;23.60;69.10;;;;;;4884823;29;20112;-75
2023/09/26 11:54:10;;;;;;;0.00;0.00;;;23.80;69.10;;;;;;4885391;29;20030;-75
2023/09/26 11:56:36;;;;;;;0.03;0.03;;;24.00;69.30;;;;;;4884956;29;20029;-75
2023/09/26 11:59:05;;;;;;;0.00;0.00;;;24.00;68.70;;;;;;4891660;29;20041;-75
2023/09/26 12:01:34;;;;;;;0.00;0.00;;;24.00;68.60;;;;;;4884789;29;20021;-75
2023/09/26 12:04:07;;;;;;;0.00;0.00;;;24.30;68.80;;;;;;4885074;29;20029;-75
2023/09/26 12:06:34;;;;;;;0.00;0.00;;;24.40;68.20;;;;;;4868157;29;20112;-75
2023/09/26 12:09:00;;;;;;;0.00;0.00;;;24.60;68.30;;;;;;4884984;29;20093;-75
2023/09/26 12:11:25;;;;;;;0.00;0.00;;;24.70;67.30;;;;;;4869221;29;20041;-75
2023/09/26 12:13:51;;;;;;;0.00;0.00;;;24.70;66.70;;;;;;4886776;29;20032;-75
2023/09/26 12:16:17;;;;;;;0.00;0.00;;;24.50;67.00;;;;;;4903455;29;20077;-76
2023/09/26 12:18:42;;;;;;;0.00;0.00;;;24.30;66.10;;;;;;4903320;29;20067;-75
2023/09/26 12:21:09;;;;;;;0.00;0.00;;;24.30;65.80;;;;;;4902250;29;20024;-75
2023/09/26 12:23:35;;;;;;;0.00;0.00;;;24.20;65.90;;;;;;4902332;29;20035;-75
2023/09/26 12:26:01;;;;;;;0.10;0.10;;;24.30;66.60;;;;;;4900939;29;20033;-75
2023/09/26 12:28:26;;;;;;;0.10;0.10;;;24.50;65.90;;;;;;4867450;29;20036;-75
2023/09/26 12:30:52;;;;;;;0.10;0.10;;;24.70;64.60;;;;;;4896707;29;20060;-75
2023/09/26 12:33:18;;;;;;;0.10;0.10;;;24.70;64.60;;;;;;4889751;29;20041;-75
2023/09/26 12:35:44;;;;;;;0.00;0.00;;;24.70;63.90;;;;;;4884457;29;20168;-75
2023/09/26 12:38:10;;;;;;;0.00;0.00;;;24.60;63.80;;;;;;4866003;29;20362;-75
2023/09/26 12:40:36;;;;;;;0.00;0.00;;;24.60;64.40;;;;;;4888608;29;20029;-75
2023/09/26 12:43:02;;;;;;;0.00;0.00;;;24.60;63.80;;;;;;4884193;29;20057;-75
2023/09/26 12:45:28;;;;;;;0.00;0.00;;;24.60;62.40;;;;;;4886669;29;20088;-75
2023/09/26 12:47:54;;;;;;;0.00;0.00;;;24.70;63.00;;;;;;4883947;29;20665;-75
2023/09/26 12:50:19;;;;;;;0.05;0.05;;;24.70;63.30;;;;;;4884457;29;20066;-75
2023/09/26 12:52:45;;;;;;;0.00;0.00;;;24.70;63.00;;;;;;4899346;29;20048;-75
2023/09/26 12:55:11;;;;;;;0.00;0.00;;;24.50;63.10;;;;;;4902867;29;20106;-75
2023/09/26 12:57:37;;;;;;;0.00;0.00;;;24.20;63.30;;;;;;4901416;29;20037;-75
2023/09/26 13:00:08;;;;;;;0.00;0.00;;;24.30;63.90;;;;;;4886048;29;20032;-75
2023/09/26 13:02:33;;;;;;;0.00;0.00;;;24.40;64.10;;;;;;4894850;29;20025;-75
2023/09/26 13:04:59;;;;;;;0.10;0.10;;;24.70;63.20;;;;;;4883751;29;20108;-75
2023/09/26 13:07:25;;;;;;;0.03;0.03;;;24.90;62.40;;;;;;4898658;29;20068;-75
2023/09/26 13:09:50;;;;;;;0.00;0.00;;;24.90;60.80;;;;;;4901594;29;20057;-75
2023/09/26 13:12:17;;;;;;;0.00;0.00;;;24.50;60.90;;;;;;4902804;29;21100;-75
2023/09/26 13:14:43;;;;;;;0.00;0.00;;;24.40;61.90;;;;;;4902493;29;20102;-75
2023/09/26 13:17:12;;;;;;;0.08;0.08;;;24.30;61.80;;;;;;4889365;29;20501;-75
2023/09/26 13:19:42;;;;;;;0.00;0.00;;;24.40;61.20;;;;;;4867205;29;20062;-75
2023/09/26 13:22:12;;;;;;;0.00;0.00;;;24.40;61.50;;;;;;4883393;29;20445;-75
2023/09/26 13:24:38;;;;;;;0.10;0.10;;;24.60;61.40;;;;;;4900763;29;20404;-75
2023/09/26 13:27:04;;;;;;;0.00;0.00;;;24.80;60.50;;;;;;4902048;29;20032;-75
2023/09/26 13:29:30;;;;;;;0.00;0.00;;;25.00;61.20;;;;;;4902070;29;20028;-75
2023/09/26 13:31:56;;;;;;;0.05;0.05;;;24.90;61.00;;;;;;4900548;29;20174;-75
2023/09/26 13:34:22;;;;;;;0.00;0.00;;;25.00;61.90;;;;;;4902039;29;20056;-75
2023/09/26 13:36:47;;;;;;;0.05;0.05;;;25.00;61.60;;;;;;4902066;29;20036;-75
2023/09/26 13:39:13;;;;;;;0.00;0.00;;;25.10;61.80;;;;;;4884568;29;20032;-75
2023/09/26 13:41:38;;;;;;;0.00;0.00;;;25.10;61.20;;;;;;4901409;29;20060;-75
2023/09/26 13:44:04;;;;;;;0.00;0.00;;;25.00;61.20;;;;;;4883570;29;20029;-75
2023/09/26 13:46:30;;;;;;;0.00;0.00;;;24.80;61.00;;;;;;4866368;29;20390;-75
2023/09/26 13:48:56;;;;;;;0.00;0.00;;;24.70;60.00;;;;;;4866342;29;20060;-76
2023/09/26 13:51:22;;;;;;;0.00;0.00;;;24.60;60.00;;;;;;4897564;29;20097;-75
2023/09/26 13:53:47;;;;;;;0.00;0.00;;;24.60;58.90;;;;;;4901595;29;20032;-75
2023/09/26 13:56:13;;;;;;;0.00;0.00;;;24.70;59.60;;;;;;4884385;29;20040;-75
2023/09/26 13:58:39;;;;;;;0.10;0.10;;;24.80;59.10;;;;;;4884720;29;20132;-75
2023/09/26 14:01:05;;;;;;;0.10;0.10;;;24.80;59.40;;;;;;4900510;29;20037;-75
2023/09/26 14:03:31;;;;;;;0.00;0.00;;;24.90;59.50;;;;;;4886407;29;20033;-75
2023/09/26 14:05:57;;;;;;;0.00;0.00;;;25.00;59.10;;;;;;4872584;29;20033;-75
2023/09/26 14:08:23;;;;;;;0.00;0.00;;;24.90;60.20;;;;;;4882949;29;20037;-75
2023/09/26 14:10:49;;;;;;;0.00;0.00;;;24.80;59.90;;;;;;4882781;29;20658;-74
2023/09/26 14:13:15;;;;;;;0.00;0.00;;;24.70;60.20;;;;;;4884030;29;20199;-75
2023/09/26 14:15:40;;;;;;;0.05;0.05;;;24.60;60.80;;;;;;4900257;29;20036;-75
2023/09/26 14:18:06;;;;;;;0.10;0.10;;;24.70;60.90;;;;;;4900026;29;20024;-75
2023/09/26 14:20:33;;;;;;;0.00;0.00;;;24.90;60.40;;;;;;4900288;29;20089;-75
2023/09/26 14:22:58;;;;;;;0.00;0.00;;;25.00;59.40;;;;;;4901151;29;20021;-75
2023/09/26 14:25:24;;;;;;;0.00;0.00;;;25.00;59.50;;;;;;4901074;29;20029;-75
2023/09/26 14:27:49;;;;;;;0.00;0.00;;;24.80;58.40;;;;;;4888249;29;20149;-75
2023/09/26 14:30:15;;;;;;;0.00;0.00;;;24.80;58.00;;;;;;4881849;29;20118;-75
2023/09/26 14:32:41;;;;;;;0.00;0.00;;;24.80;58.80;;;;;;4900321;29;20131;-75
2023/09/26 14:35:08;;;;;;;0.00;0.00;;;24.90;59.10;;;;;;4900950;29;20029;-75
2023/09/26 14:37:34;;;;;;;0.00;0.00;;;25.00;59.60;;;;;;4901086;29;20093;-75
2023/09/26 14:40:00;;;;;;;0.10;0.10;;;25.00;60.30;;;;;;4897216;29;20037;-75
2023/09/26 14:42:26;;;;;;;0.00;0.00;;;25.20;60.20;;;;;;4898767;29;20503;-75
2023/09/26 14:44:51;;;;;;;0.10;0.10;;;25.10;60.00;;;;;;4900820;29;20055;-75
2023/09/26 14:47:17;;;;;;;0.00;0.00;;;25.10;59.00;;;;;;4900017;29;20028;-75
2023/09/26 14:49:43;;;;;;;0.00;0.00;;;25.00;58.70;;;;;;4895369;29;20115;-74
2023/09/26 14:52:08;;;;;;;0.00;0.00;;;24.80;59.00;;;;;;4865449;29;20032;-75
2023/09/26 14:54:35;;;;;;;0.00;0.00;;;24.70;59.20;;;;;;4882110;29;20060;-75
2023/09/26 14:57:01;;;;;;;0.00;0.00;;;24.70;60.20;;;;;;4882005;29;20025;-75
2023/09/26 14:59:26;;;;;;;0.00;0.00;;;24.60;60.20;;;;;;4894421;29;20027;-75
2023/09/26 15:01:53;;;;;;;0.00;0.00;;;24.60;60.40;;;;;;4898175;29;20036;-75
2023/09/26 15:04:19;;;;;;;0.00;0.00;;;24.40;59.60;;;;;;4881545;29;20086;-75
2023/09/26 15:06:45;;;;;;;0.00;0.00;;;24.40;59.30;;;;;;4900540;29;20021;-75
2023/09/26 15:09:10;;;;;;;0.00;0.00;;;24.40;59.60;;;;;;4895711;29;20028;-75
2023/09/26 15:11:36;;;;;;;0.00;0.00;;;24.40;59.40;;;;;;4897389;29;20064;-75
2023/09/26 15:14:02;;;;;;;0.10;0.10;;;24.50;59.90;;;;;;4900718;29;20071;-75
2023/09/26 15:16:28;;;;;;;0.00;0.00;;;24.40;59.30;;;;;;4900583;29;20032;-75
2023/09/26 15:18:53;;;;;;;0.00;0.00;;;24.40;59.20;;;;;;4891267;29;20025;-75
2023/09/26 15:21:19;;;;;;;0.00;0.00;;;24.30;57.70;;;;;;4888540;29;20132;-75
2023/09/26 15:23:44;;;;;;;0.00;0.00;;;24.30;58.40;;;;;;4886828;29;20021;-75
2023/09/26 15:26:12;;;;;;;0.00;0.00;;;24.30;58.50;;;;;;4891590;29;20033;-75
2023/09/26 15:28:38;;;;;;;0.00;0.00;;;24.20;58.00;;;;;;4888889;29;20037;-75
2023/09/26 15:31:03;;;;;;;0.00;0.00;;;24.30;58.10;;;;;;4881785;29;20077;-75
2023/09/26 15:33:29;;;;;;;0.00;0.00;;;24.30;59.20;;;;;;4872027;29;20033;-75
2023/09/26 15:35:55;;;;;;;0.10;0.10;;;24.40;58.10;;;;;;4861459;29;20132;-75
2023/09/26 15:38:20;;;;;;;0.00;0.00;;;24.50;57.10;;;;;;4872059;29;20044;-75
2023/09/26 15:40:46;;;;;;;0.08;0.08;;;24.50;57.40;;;;;;4871296;29;20029;-75
2023/09/26 15:43:12;;;;;;;0.00;0.00;;;24.50;58.10;;;;;;4870741;29;20141;-75
2023/09/26 15:45:39;;;;;;;0.00;0.00;;;24.30;58.40;;;;;;4872255;29;20044;-75
2023/09/26 15:48:05;;;;;;;0.00;0.00;;;24.30;58.30;;;;;;4871472;29;20498;-75
2023/09/26 15:50:31;;;;;;;0.00;0.00;;;24.30;58.80;;;;;;4871097;29;20029;-75
2023/09/26 15:52:57;;;;;;;0.00;0.00;;;24.40;58.70;;;;;;4870951;29;20060;-75
2023/09/26 15:55:23;;;;;;;0.00;0.00;;;24.40;59.50;;;;;;4856374;29;20037;-74
2023/09/26 15:57:49;;;;;;;0.00;0.00;;;24.40;59.60;;;;;;4880859;29;20076;-75
2023/09/26 16:00:16;;;;;;;0.00;0.00;;;24.50;59.10;;;;;;4870161;29;20464;-75
2023/09/26 16:02:42;;;;;;;0.00;0.00;;;24.50;58.60;;;;;;4853673;29;20029;-74
2023/09/26 16:05:08;;;;;;;0.00;0.00;;;24.40;59.20;;;;;;4867760;29;20044;-74
2023/09/26 16:07:34;;;;;;;0.00;0.00;;;24.30;59.80;;;;;;4870894;29;20036;-75
2023/09/26 16:10:00;;;;;;;0.00;0.00;;;24.30;60.20;;;;;;4881588;29;20033;-74
2023/09/26 16:12:26;;;;;;;0.00;0.00;;;24.20;60.50;;;;;;4863787;29;20064;-75
2023/09/26 16:14:52;;;;;;;0.00;0.00;;;24.20;60.30;;;;;;4877270;29;20033;-75
2023/09/26 16:17:18;;;;;;;0.00;0.00;;;24.00;60.50;;;;;;4857556;29;20034;-75
2023/09/26 16:19:44;;;;;;;0.00;0.00;;;23.80;61.00;;;;;;4882332;29;20033;-75
2023/09/26 16:22:10;;;;;;;0.00;0.00;;;23.80;61.30;;;;;;4864416;29;20029;-76
2023/09/26 16:24:36;;;;;;;0.00;0.00;;;23.80;61.60;;;;;;4867815;29;20033;-80
2023/09/26 16:27:01;;;;;;;0.00;0.00;;;23.70;61.40;;;;;;4845513;29;20128;-76
2023/09/26 16:29:27;;;;;;;0.00;0.00;;;23.70;61.00;;;;;;4865802;29;20141;-75
2023/09/26 16:31:53;;;;;;;0.00;0.00;;;23.60;61.90;;;;;;4855613;29;20076;-78
2023/09/26 16:34:20;;;;;;;0.00;0.00;;;23.60;62.30;;;;;;4866195;29;20477;-75
2023/09/26 16:36:46;;;;;;;0.00;0.00;;;23.70;61.60;;;;;;4873318;29;20021;-75
2023/09/26 16:39:12;;;;;;;0.00;0.00;;;23.80;61.70;;;;;;4866921;29;20036;-75
2023/09/26 16:41:40;;;;;;;0.00;0.00;;;23.80;61.70;;;;;;4872813;29;20018;-74
2023/09/26 16:44:06;;;;;;;0.00;0.00;;;23.80;62.20;;;;;;4866544;29;20029;-74
2023/09/26 16:46:33;;;;;;;0.00;0.00;;;23.80;62.00;;;;;;4869409;29;20036;-75
2023/09/26 16:48:59;;;;;;;0.00;0.00;;;23.80;61.50;;;;;;4863147;29;20065;-77
2023/09/26 16:51:25;;;;;;;0.00;0.00;;;23.80;62.00;;;;;;4866350;29;20116;-76
2023/09/26 16:53:54;;;;;;;0.00;0.00;;;23.80;60.90;;;;;;4870153;29;20060;-76
2023/09/26 16:56:22;;;;;;;0.00;0.00;;;23.80;61.00;;;;;;4874879;29;20026;-76
2023/09/26 16:58:48;;;;;;;0.00;0.00;;;23.70;60.50;;;;;;4872766;29;20116;-76
2023/09/26 17:01:13;;;;;;;0.00;0.00;;;23.70;61.10;;;;;;4858797;29;20053;-76
2023/09/26 17:03:39;;;;;;;0.00;0.00;;;23.60;60.20;;;;;;4872716;29;20523;-76
2023/09/26 17:06:06;;;;;;;0.00;0.00;;;23.50;61.30;;;;;;4870546;29;20538;-76
2023/09/26 17:08:32;;;;;;;0.00;0.00;;;23.50;61.40;;;;;;4868893;29;20113;-75
2023/09/26 17:10:58;;;;;;;0.00;0.00;;;23.50;61.70;;;;;;4877249;29;20060;-76
2023/09/26 17:13:23;;;;;;;0.00;0.00;;;23.30;61.90;;;;;;4867199;29;20039;-76